createdAt,value
2017-07-19T00:01:43.374Z,98.20
2017-07-19T00:04:10.311Z,97.80
2017-07-19T00:06:37.270Z,97.80
2017-07-19T00:09:04.202Z,97.90
2017-07-19T00:14:32.598Z,97.90
2017-07-19T00:16:59.442Z,97.70
2017-07-19T00:19:26.308Z,97.60
2017-07-19T00:21:53.232Z,97.90
2017-07-19T00:24:20.178Z,97.90
2017-07-19T00:26:47.022Z,98.30
2017-07-19T00:29:13.858Z,97.80
2017-07-19T00:31:40.712Z,97.90
2017-07-19T00:34:07.548Z,98.10
2017-07-19T00:36:34.493Z,98.10
2017-07-19T00:42:00.843Z,98.20
2017-07-19T00:44:27.683Z,98.20
2017-07-19T00:46:54.523Z,98.50
2017-07-19T00:49:21.469Z,98.30
2017-07-19T00:51:48.313Z,98.30
2017-07-19T00:54:15.474Z,98.70
2017-07-19T00:56:43.128Z,99.10
2017-07-19T00:59:09.977Z,99.10
2017-07-19T01:01:36.805Z,99.60
2017-07-19T01:04:03.748Z,99.10
2017-07-19T01:06:30.593Z,99.40
2017-07-19T01:08:57.431Z,99.70
2017-07-19T01:11:24.133Z,99.80
2017-07-19T01:13:51.746Z,99.30
2017-07-19T01:16:18.681Z,99.30
2017-07-19T01:18:45.516Z,99.20
2017-07-19T01:21:12.369Z,99.30
2017-07-19T01:23:39.213Z,99.60
2017-07-19T01:26:06.158Z,99.90
2017-07-19T01:28:33.095Z,99.90
2017-07-19T01:31:00.049Z,99.90
2017-07-19T01:33:26.984Z,99.90
2017-07-19T01:35:53.928Z,99.90
2017-07-19T01:38:20.873Z,99.90
2017-07-19T01:40:47.710Z,99.90
2017-07-19T01:43:14.558Z,99.90
2017-07-19T01:45:41.508Z,99.90
2017-07-19T01:48:08.562Z,99.90
2017-07-19T01:53:33.373Z,99.90
2017-07-19T01:56:00.209Z,99.90
2017-07-19T01:58:27.146Z,99.90
2017-07-19T02:00:54.110Z,99.90
2017-07-19T02:03:21.043Z,99.90
2017-07-19T02:05:48.000Z,99.90
2017-07-19T02:20:03.854Z,99.90
2017-07-19T02:22:30.670Z,99.90
2017-07-19T02:24:58.164Z,99.90
2017-07-19T02:27:24.899Z,99.90
2017-07-19T02:29:52.454Z,99.90
2017-07-19T02:32:19.282Z,99.90
2017-07-19T02:34:46.235Z,99.90
2017-07-19T02:37:13.072Z,99.90
2017-07-19T02:39:39.926Z,99.90
2017-07-19T02:42:06.653Z,99.90
2017-07-19T02:44:33.504Z,99.90
2017-07-19T02:47:00.341Z,99.90
2017-07-19T02:49:27.271Z,99.90
2017-07-19T02:51:54.229Z,99.90
2017-07-19T02:54:20.974Z,99.90
2017-07-19T02:56:47.927Z,99.90
2017-07-19T02:59:14.764Z,99.90
2017-07-19T03:01:41.500Z,99.90
2017-07-19T03:04:08.346Z,99.90
2017-07-19T03:06:35.181Z,99.90
2017-07-19T03:09:02.024Z,99.90
2017-07-19T03:11:28.970Z,99.90
2017-07-19T03:13:55.914Z,99.90
2017-07-19T03:16:22.760Z,99.90
2017-07-19T03:18:49.489Z,99.90
2017-07-19T03:21:16.855Z,99.90
2017-07-19T03:23:43.809Z,99.90
2017-07-19T03:26:10.744Z,99.90
2017-07-19T03:28:37.588Z,99.90
2017-07-19T03:31:04.434Z,99.90
2017-07-19T03:33:31.261Z,99.90
2017-07-19T03:35:58.207Z,99.90
2017-07-19T03:41:23.039Z,99.90
2017-07-19T03:43:49.884Z,99.90
2017-07-19T03:46:16.710Z,99.90
2017-07-19T03:48:43.554Z,99.90
2017-07-19T03:51:10.395Z,99.90
2017-07-19T03:53:37.340Z,99.90
2017-07-19T03:56:04.186Z,99.90
2017-07-19T03:58:31.130Z,99.90
2017-07-19T04:00:57.974Z,99.90
2017-07-19T04:03:24.919Z,99.90
2017-07-19T04:05:52.566Z,99.90
2017-07-19T04:08:19.520Z,99.90
2017-07-19T04:10:46.357Z,99.90
2017-07-19T04:13:13.214Z,99.90
2017-07-19T04:15:40.160Z,99.90
2017-07-19T04:18:07.099Z,99.90
2017-07-19T04:20:34.036Z,99.90
2017-07-19T04:23:00.886Z,99.90
2017-07-19T04:25:27.830Z,99.90
2017-07-19T04:27:54.669Z,99.90
2017-07-19T04:30:21.706Z,99.90
2017-07-19T04:32:48.555Z,99.90
2017-07-19T04:35:15.404Z,99.90
2017-07-19T04:37:42.240Z,99.90
2017-07-19T04:40:09.600Z,99.90
2017-07-19T04:42:36.440Z,99.90
2017-07-19T04:45:03.174Z,99.90
2017-07-19T04:47:30.125Z,99.90
2017-07-19T04:49:56.961Z,99.90
2017-07-19T04:52:23.906Z,99.90
2017-07-19T04:54:50.866Z,99.90
2017-07-19T04:57:17.800Z,99.90
2017-07-19T04:59:44.749Z,99.90
2017-07-19T05:02:11.594Z,99.90
2017-07-19T05:04:38.539Z,99.90
2017-07-19T05:07:05.380Z,99.90
2017-07-19T05:09:32.219Z,99.90
2017-07-19T05:11:59.165Z,99.90
2017-07-19T05:14:25.996Z,99.90
2017-07-19T05:16:53.394Z,99.90
2017-07-19T05:19:21.020Z,99.90
2017-07-19T05:21:47.959Z,99.90
2017-07-19T05:24:14.810Z,99.90
2017-07-19T05:26:41.546Z,99.90
2017-07-19T05:29:08.509Z,99.90
2017-07-19T05:31:36.045Z,99.90
2017-07-19T05:34:02.888Z,99.90
2017-07-19T05:36:29.833Z,99.90
2017-07-19T05:38:56.783Z,99.90
2017-07-19T05:41:23.623Z,99.90
2017-07-19T05:43:50.574Z,99.90
2017-07-19T05:46:17.435Z,99.90
2017-07-19T05:48:45.066Z,99.90
2017-07-19T05:51:11.910Z,99.90
2017-07-19T05:53:38.755Z,99.90
2017-07-19T05:56:05.690Z,99.90
2017-07-19T05:58:32.554Z,99.90
2017-07-19T06:00:59.496Z,99.90
2017-07-19T06:03:26.326Z,99.90
2017-07-19T06:05:53.267Z,99.90
2017-07-19T06:08:20.116Z,99.90
2017-07-19T06:10:47.137Z,99.90
2017-07-19T06:13:14.227Z,99.90
2017-07-19T06:15:42.067Z,99.90
2017-07-19T06:18:09.548Z,99.90
2017-07-19T06:20:36.802Z,99.90
2017-07-19T06:23:03.843Z,99.90
2017-07-19T06:25:31.738Z,99.90
2017-07-19T06:27:59.465Z,99.90
2017-07-19T06:30:26.410Z,99.90
2017-07-19T06:32:54.995Z,99.90
2017-07-19T06:35:21.823Z,99.90
2017-07-19T06:37:48.668Z,99.90
2017-07-19T06:40:15.521Z,99.90
2017-07-19T06:42:42.465Z,99.90
2017-07-19T06:45:09.095Z,99.90
2017-07-19T06:47:36.050Z,99.90
2017-07-19T06:50:02.468Z,99.90
2017-07-19T06:52:28.794Z,99.90
2017-07-19T06:54:55.070Z,99.90
2017-07-19T06:57:21.377Z,99.90
2017-07-19T06:59:47.697Z,99.90
2017-07-19T07:02:13.998Z,99.90
2017-07-19T07:04:40.260Z,99.90
2017-07-19T07:07:06.553Z,99.90
2017-07-19T07:09:32.824Z,99.90
2017-07-19T07:11:59.855Z,99.90
2017-07-19T07:14:27.837Z,99.90
2017-07-19T07:16:54.876Z,99.90
2017-07-19T07:19:21.196Z,99.90
2017-07-19T07:21:47.489Z,99.90
2017-07-19T07:24:13.776Z,99.90
2017-07-19T07:26:40.800Z,99.90
2017-07-19T07:29:07.088Z,99.90
2017-07-19T07:31:33.371Z,99.90
2017-07-19T07:33:59.630Z,99.90
2017-07-19T07:36:25.963Z,99.90
2017-07-19T07:38:52.261Z,99.90
2017-07-19T07:41:18.578Z,99.90
2017-07-19T07:43:44.836Z,99.90
2017-07-19T07:46:11.142Z,99.90
2017-07-19T07:48:37.400Z,99.90
2017-07-19T07:51:04.518Z,99.90
2017-07-19T07:53:30.814Z,99.90
2017-07-19T07:55:57.145Z,99.90
2017-07-19T07:58:23.421Z,99.90
2017-07-19T08:00:50.449Z,99.90
2017-07-19T08:03:17.540Z,99.90
2017-07-19T08:05:50.732Z,99.90
2017-07-19T08:08:17.054Z,99.90
2017-07-19T08:10:43.387Z,99.90
2017-07-19T08:13:10.429Z,99.90
2017-07-19T08:15:37.444Z,99.90
2017-07-19T08:18:03.721Z,99.90
2017-07-19T08:20:30.020Z,99.90
2017-07-19T08:22:57.082Z,99.90
2017-07-19T08:25:24.137Z,99.90
2017-07-19T08:27:50.480Z,99.90
2017-07-19T08:30:16.764Z,99.90
2017-07-19T08:32:43.064Z,99.90
2017-07-19T08:35:09.363Z,99.90
2017-07-19T08:37:35.646Z,99.90
2017-07-19T08:40:02.696Z,99.90
2017-07-19T08:42:28.989Z,99.90
2017-07-19T08:44:55.298Z,99.90
2017-07-19T08:47:21.631Z,99.90
2017-07-19T08:49:48.993Z,99.90
2017-07-19T08:52:15.276Z,99.90
2017-07-19T08:54:42.324Z,99.90
2017-07-19T08:57:08.594Z,99.90
2017-07-19T08:59:34.925Z,99.80
2017-07-19T09:02:01.203Z,99.60
2017-07-19T09:04:27.548Z,99.50
2017-07-19T09:06:53.826Z,99.90
2017-07-19T09:09:20.097Z,99.90
2017-07-19T09:11:46.418Z,99.90
2017-07-19T09:14:12.707Z,99.40
2017-07-19T09:16:39.008Z,99.20
2017-07-19T09:19:05.313Z,98.80
2017-07-19T09:21:31.620Z,99.00
2017-07-19T09:23:57.930Z,99.00
2017-07-19T09:26:24.241Z,98.50
2017-07-19T09:28:50.536Z,97.90
2017-07-19T09:31:17.586Z,98.40
2017-07-19T09:33:43.880Z,98.30
2017-07-19T09:36:10.235Z,97.50
2017-07-19T09:38:36.516Z,98.10
2017-07-19T09:41:02.800Z,97.60
2017-07-19T09:43:29.089Z,97.80
2017-07-19T09:45:55.346Z,97.60
2017-07-19T09:48:21.639Z,97.60
2017-07-19T09:50:47.922Z,96.80
2017-07-19T09:53:21.127Z,96.40
2017-07-19T09:55:48.426Z,96.30
2017-07-19T09:58:14.716Z,96.30
2017-07-19T10:00:41.074Z,95.50
2017-07-19T10:03:07.365Z,95.20
2017-07-19T10:05:33.678Z,95.20
2017-07-19T10:07:59.997Z,95.10
2017-07-19T10:10:26.292Z,95.40
2017-07-19T10:12:52.573Z,95.20
2017-07-19T10:15:18.865Z,94.10
2017-07-19T10:17:45.128Z,94.80
2017-07-19T10:20:11.412Z,95.40
2017-07-19T10:22:37.685Z,93.70
2017-07-19T10:25:03.978Z,94.30
2017-07-19T10:27:30.247Z,93.90
2017-07-19T10:29:56.531Z,94.80
2017-07-19T10:32:22.806Z,93.90
2017-07-19T10:34:49.109Z,93.20
2017-07-19T10:37:15.397Z,92.80
2017-07-19T10:39:41.714Z,92.50
2017-07-19T10:42:08.035Z,93.10
2017-07-19T10:44:34.345Z,93.20
2017-07-19T10:47:00.638Z,94.60
2017-07-19T10:49:26.973Z,92.10
2017-07-19T10:51:53.319Z,93.20
2017-07-19T10:54:19.677Z,92.70
2017-07-19T10:56:46.060Z,94.40
2017-07-19T10:59:13.187Z,93.90
2017-07-19T11:01:39.560Z,93.80
2017-07-19T11:04:05.857Z,93.40
2017-07-19T11:06:32.184Z,94.20
2017-07-19T11:08:58.481Z,93.40
2017-07-19T11:11:24.817Z,93.50
2017-07-19T11:13:51.846Z,93.50
2017-07-19T11:16:18.138Z,93.50
2017-07-19T11:18:51.574Z,92.90
2017-07-19T11:21:17.877Z,92.90
2017-07-19T11:23:44.151Z,92.10
2017-07-19T11:26:11.175Z,92.60
2017-07-19T11:28:37.478Z,92.40
2017-07-19T11:31:03.805Z,92.30
2017-07-19T11:33:30.369Z,92.00
2017-07-19T11:35:57.062Z,92.60
2017-07-19T11:38:23.391Z,94.40
2017-07-19T11:40:49.692Z,94.40
2017-07-19T11:43:16.712Z,92.60
2017-07-19T11:45:43.020Z,92.60
2017-07-19T11:48:09.291Z,93.20
2017-07-19T11:50:35.575Z,92.50
2017-07-19T11:53:01.862Z,92.10
2017-07-19T11:55:28.897Z,90.40
2017-07-19T11:57:55.159Z,90.40
2017-07-19T12:00:21.430Z,91.60
2017-07-19T12:02:47.724Z,91.60
2017-07-19T12:05:14.008Z,92.10
2017-07-19T12:07:40.298Z,90.50
2017-07-19T12:10:06.596Z,91.00
2017-07-19T12:12:32.924Z,91.90
2017-07-19T12:14:59.197Z,91.20
2017-07-19T12:17:25.492Z,85.70
2017-07-19T12:19:51.769Z,88.10
2017-07-19T12:22:18.106Z,87.50
2017-07-19T12:24:44.393Z,87.20
2017-07-19T12:27:10.707Z,86.50
2017-07-19T12:29:37.706Z,86.90
2017-07-19T12:32:03.997Z,86.10
2017-07-19T12:34:30.317Z,87.80
2017-07-19T12:36:56.629Z,89.90
2017-07-19T12:39:22.930Z,90.50
2017-07-19T12:41:49.218Z,89.40
2017-07-19T12:44:15.678Z,89.80
2017-07-19T12:46:41.966Z,89.50
2017-07-19T12:49:08.283Z,88.80
2017-07-19T12:51:34.564Z,90.40
2017-07-19T12:54:00.919Z,88.20
2017-07-19T12:56:27.231Z,88.40
2017-07-19T12:58:53.547Z,85.10
2017-07-19T13:01:19.810Z,90.20
2017-07-19T13:03:46.158Z,86.10
2017-07-19T13:06:13.186Z,88.00
2017-07-19T13:08:40.273Z,89.50
2017-07-19T13:11:06.571Z,89.40
2017-07-19T13:13:32.869Z,87.70
2017-07-19T13:15:59.218Z,87.30
2017-07-19T13:18:26.255Z,89.00
2017-07-19T13:20:52.544Z,88.80
2017-07-19T13:23:18.853Z,79.40
2017-07-19T13:25:45.124Z,80.00
2017-07-19T13:28:11.398Z,80.40
2017-07-19T13:30:38.445Z,80.00
2017-07-19T13:33:04.721Z,79.90
2017-07-19T13:35:31.017Z,76.60
2017-07-19T13:37:58.042Z,78.90
2017-07-19T13:40:25.080Z,71.90
2017-07-19T13:42:51.365Z,71.90
2017-07-19T13:45:17.650Z,73.00
2017-07-19T13:47:43.947Z,74.50
2017-07-19T13:50:17.248Z,76.10
2017-07-19T13:52:43.566Z,77.70
2017-07-19T13:55:09.858Z,77.00
2017-07-19T13:57:36.194Z,77.40
2017-07-19T14:00:02.521Z,77.40
2017-07-19T14:02:28.826Z,73.10
2017-07-19T14:04:55.135Z,72.20
2017-07-19T14:07:21.404Z,73.70
2017-07-19T14:09:47.710Z,76.60
2017-07-19T14:12:13.976Z,74.60
2017-07-19T14:14:40.272Z,75.10
2017-07-19T14:17:06.536Z,73.10
2017-07-19T14:19:32.862Z,70.00
2017-07-19T14:21:59.161Z,68.60
2017-07-19T14:24:25.421Z,69.60
2017-07-19T14:26:51.791Z,68.90
2017-07-19T14:29:18.116Z,66.00
2017-07-19T14:31:44.401Z,66.60
2017-07-19T14:34:10.674Z,68.70
2017-07-19T14:36:36.950Z,69.00
2017-07-19T14:39:03.311Z,64.30
2017-07-19T14:41:29.644Z,65.80
2017-07-19T14:43:55.925Z,67.60
2017-07-19T14:46:22.203Z,64.10
2017-07-19T14:48:48.493Z,64.00
2017-07-19T14:51:14.756Z,65.70
2017-07-19T14:53:41.044Z,64.30
2017-07-19T14:56:07.333Z,65.50
2017-07-19T14:58:33.627Z,66.40
2017-07-19T15:01:00.632Z,67.80
2017-07-19T15:03:26.925Z,67.80
2017-07-19T15:05:53.220Z,66.00
2017-07-19T15:08:19.535Z,63.10
2017-07-19T15:10:46.568Z,59.90
2017-07-19T15:13:12.841Z,59.40
2017-07-19T15:15:39.838Z,55.60
2017-07-19T15:18:06.130Z,55.50
2017-07-19T15:20:32.413Z,55.80
2017-07-19T15:22:58.682Z,51.90
2017-07-19T15:25:31.931Z,50.00
2017-07-19T15:27:58.207Z,51.80
2017-07-19T15:30:24.497Z,51.20
2017-07-19T15:32:50.773Z,49.20
2017-07-19T15:35:17.048Z,47.40
2017-07-19T15:37:43.313Z,48.50
2017-07-19T15:40:10.370Z,47.30
2017-07-19T15:42:36.736Z,47.20
2017-07-19T15:45:03.028Z,45.50
2017-07-19T15:47:29.347Z,46.20
2017-07-19T15:49:55.652Z,43.50
2017-07-19T15:52:21.933Z,44.90
2017-07-19T15:54:48.197Z,43.30
2017-07-19T15:57:14.512Z,45.20
2017-07-19T15:59:40.775Z,44.40
2017-07-19T16:02:07.837Z,42.10
2017-07-19T16:04:34.125Z,42.20
2017-07-19T16:07:00.392Z,43.90
2017-07-19T16:09:27.435Z,39.20
2017-07-19T16:11:54.456Z,39.90
2017-07-19T16:14:20.754Z,39.80
2017-07-19T16:16:47.015Z,39.50
2017-07-19T16:19:13.289Z,41.90
2017-07-19T16:21:39.580Z,42.00
2017-07-19T16:24:05.887Z,41.50
2017-07-19T16:26:32.165Z,44.20
2017-07-19T16:28:59.166Z,47.10
2017-07-19T16:31:25.468Z,47.00
2017-07-19T16:33:51.787Z,46.60
2017-07-19T16:36:18.089Z,49.50
2017-07-19T16:38:45.160Z,50.00
2017-07-19T16:41:11.465Z,50.00
2017-07-19T16:43:38.482Z,52.50
2017-07-19T16:46:05.768Z,52.70
2017-07-19T16:48:32.814Z,55.50
2017-07-19T16:50:59.850Z,54.60
2017-07-19T16:53:33.983Z,54.70
2017-07-19T16:56:00.271Z,54.50
2017-07-19T16:58:26.549Z,52.80
2017-07-19T17:00:52.840Z,54.50
2017-07-19T17:03:19.119Z,56.10
2017-07-19T17:05:45.429Z,55.70
2017-07-19T17:08:12.448Z,53.50
2017-07-19T17:10:38.756Z,53.40
2017-07-19T17:13:05.021Z,52.40
2017-07-19T17:15:31.375Z,50.40
2017-07-19T17:17:57.703Z,51.20
2017-07-19T17:20:24.010Z,52.10
2017-07-19T17:22:51.075Z,54.00
2017-07-19T17:25:17.414Z,53.90
2017-07-19T17:27:43.694Z,52.80
2017-07-19T17:30:09.986Z,52.90
2017-07-19T17:32:36.396Z,53.50
2017-07-19T17:35:03.411Z,55.20
2017-07-19T17:37:30.463Z,56.20
2017-07-19T17:39:56.738Z,56.20
2017-07-19T17:42:22.994Z,56.30
2017-07-19T17:44:49.304Z,58.10
2017-07-19T17:47:15.628Z,56.60
2017-07-19T17:49:41.917Z,55.70
2017-07-19T17:52:08.253Z,54.70
2017-07-19T17:54:35.725Z,52.60
2017-07-19T17:57:02.069Z,52.60
2017-07-19T17:59:28.353Z,53.10
2017-07-19T18:01:54.640Z,52.70
2017-07-19T18:04:20.934Z,52.60
2017-07-19T18:06:48.457Z,54.90
2017-07-19T18:09:14.746Z,54.50
2017-07-19T18:11:41.039Z,54.40
2017-07-19T18:14:08.085Z,57.30
2017-07-19T18:16:34.360Z,57.20
2017-07-19T18:19:00.644Z,58.00
2017-07-19T18:21:26.907Z,59.10
2017-07-19T18:23:53.200Z,59.30
2017-07-19T18:26:19.494Z,60.10
2017-07-19T18:28:45.760Z,60.30
2017-07-19T18:31:12.055Z,60.10
2017-07-19T18:33:38.334Z,61.40
2017-07-19T18:36:04.667Z,60.00
2017-07-19T18:38:30.965Z,59.60
2017-07-19T18:40:57.261Z,60.80
2017-07-19T18:43:23.555Z,61.10
2017-07-19T18:45:49.844Z,62.60
2017-07-19T18:48:16.139Z,62.00
2017-07-19T18:50:42.420Z,62.50
2017-07-19T18:53:09.550Z,62.70
2017-07-19T18:55:36.184Z,62.00
2017-07-19T18:58:02.458Z,63.20
2017-07-19T19:00:36.509Z,64.40
2017-07-19T19:03:02.936Z,63.60
2017-07-19T19:05:29.520Z,63.40
2017-07-19T19:07:56.000Z,63.40
2017-07-19T19:10:22.276Z,65.30
2017-07-19T19:12:48.554Z,63.90
2017-07-19T19:15:14.813Z,64.80
2017-07-19T19:17:41.066Z,64.40
2017-07-19T19:20:07.342Z,64.60
2017-07-19T19:22:33.648Z,65.50
2017-07-19T19:25:00.805Z,65.20
2017-07-19T19:27:27.388Z,65.20
2017-07-19T19:29:53.734Z,65.60
2017-07-19T19:32:19.991Z,66.60
2017-07-19T19:34:47.015Z,67.20
2017-07-19T19:37:13.467Z,67.10
2017-07-19T19:39:39.731Z,68.30
2017-07-19T19:42:06.019Z,69.10
2017-07-19T19:44:32.834Z,70.00
2017-07-19T19:46:59.124Z,71.50
2017-07-19T19:49:25.410Z,72.40
2017-07-19T19:51:51.757Z,73.00
2017-07-19T19:54:18.049Z,73.10
2017-07-19T19:56:44.364Z,74.40
2017-07-19T19:59:10.633Z,75.30
2017-07-19T20:01:37.744Z,77.40
2017-07-19T20:04:04.055Z,76.90
2017-07-19T20:06:30.362Z,77.60
2017-07-19T20:08:57.383Z,78.40
2017-07-19T20:11:23.726Z,78.40
2017-07-19T20:13:50.750Z,79.50
2017-07-19T20:16:17.068Z,79.30
2017-07-19T20:18:43.363Z,80.50
2017-07-19T20:21:09.667Z,81.40
2017-07-19T20:23:36.678Z,82.50
2017-07-19T20:26:03.018Z,82.50
2017-07-19T20:28:29.298Z,83.20
2017-07-19T20:30:55.606Z,83.20
2017-07-19T20:33:22.612Z,84.10
2017-07-19T20:35:48.884Z,84.00
2017-07-19T20:38:15.904Z,84.40
2017-07-19T20:40:42.938Z,84.90
2017-07-19T20:43:09.214Z,84.80
2017-07-19T20:45:35.574Z,85.10
2017-07-19T20:48:01.855Z,85.50
2017-07-19T20:50:28.881Z,86.30
2017-07-19T20:52:55.167Z,86.30
2017-07-19T20:55:21.441Z,86.60
2017-07-19T20:57:47.740Z,87.50
2017-07-19T21:00:14.039Z,87.50
2017-07-19T21:02:40.369Z,87.70
2017-07-19T21:05:07.626Z,88.10
2017-07-19T21:07:33.921Z,88.60
2017-07-19T21:10:00.582Z,89.30
2017-07-19T21:12:26.923Z,90.00
2017-07-19T21:14:53.306Z,89.90
2017-07-19T21:17:19.640Z,90.00
2017-07-19T21:19:45.997Z,90.10
2017-07-19T21:22:12.331Z,90.10
2017-07-19T21:24:38.689Z,91.20
2017-07-19T21:27:04.994Z,92.90
2017-07-19T21:29:32.060Z,98.00
2017-07-19T21:31:58.488Z,98.00
2017-07-19T21:34:24.810Z,97.80
2017-07-19T21:36:51.127Z,99.90
2017-07-19T21:39:17.458Z,99.90
2017-07-19T21:41:43.771Z,99.90
2017-07-19T21:44:10.790Z,99.90
2017-07-19T21:46:37.115Z,99.90
2017-07-19T21:49:03.437Z,99.90
2017-07-19T21:51:29.748Z,99.90
2017-07-19T21:53:56.074Z,99.90
2017-07-19T21:56:22.410Z,99.90
2017-07-19T21:58:48.726Z,99.90
2017-07-19T22:01:15.793Z,99.90
2017-07-19T22:03:42.126Z,99.90
2017-07-19T22:06:08.487Z,99.90
2017-07-19T22:08:34.790Z,99.90
2017-07-19T22:11:01.113Z,99.90
2017-07-19T22:13:27.454Z,99.90
2017-07-19T22:15:53.761Z,99.90
2017-07-19T22:18:20.125Z,99.90
2017-07-19T22:20:46.429Z,99.90
2017-07-19T22:23:12.760Z,99.90
2017-07-19T22:25:39.080Z,99.90
2017-07-19T22:28:05.402Z,99.90
2017-07-19T22:30:31.738Z,99.90
2017-07-19T22:32:58.082Z,99.90
2017-07-19T22:35:24.412Z,99.90
2017-07-19T22:37:50.753Z,99.90
2017-07-19T22:40:17.112Z,99.90
2017-07-19T22:42:43.432Z,99.90
2017-07-19T22:45:09.760Z,99.90
2017-07-19T22:47:36.091Z,99.90
2017-07-19T22:50:02.433Z,99.90
2017-07-19T22:52:28.763Z,99.90
2017-07-19T22:54:55.083Z,99.90
2017-07-19T22:57:21.382Z,99.90
2017-07-19T22:59:47.687Z,99.90
2017-07-19T23:02:13.984Z,99.90
2017-07-19T23:04:40.320Z,99.90
2017-07-19T23:07:06.642Z,99.90
2017-07-19T23:09:32.975Z,99.90
2017-07-19T23:11:59.313Z,99.90
2017-07-19T23:14:25.613Z,99.90
2017-07-19T23:16:51.946Z,99.90
2017-07-19T23:19:18.243Z,99.90
2017-07-19T23:21:44.589Z,99.90
2017-07-19T23:24:10.882Z,99.90
2017-07-19T23:26:37.947Z,99.90
2017-07-19T23:29:04.263Z,99.90
2017-07-19T23:31:30.574Z,99.90
2017-07-19T23:33:56.883Z,99.90
2017-07-19T23:36:23.250Z,99.90
2017-07-19T23:38:50.302Z,99.90
2017-07-19T23:41:17.326Z,99.90
2017-07-19T23:43:43.647Z,99.90
2017-07-19T23:46:09.958Z,99.90
2017-07-19T23:48:36.281Z,99.90
2017-07-19T23:51:02.583Z,99.90
2017-07-19T23:53:28.938Z,99.90
2017-07-19T23:55:55.247Z,99.90
2017-07-19T23:58:21.570Z,99.90
